createdAt,value
2022-09-13T00:03:28.894Z,100257.60
2022-09-13T00:08:31.981Z,100250.60
2022-09-13T00:13:35.116Z,100255.80
2022-09-13T00:18:38.391Z,100257.40
2022-09-13T00:23:46.148Z,100255.80
2022-09-13T00:28:56.174Z,100254.00
2022-09-13T00:34:00.696Z,100251.00
2022-09-13T00:39:04.026Z,100238.00
2022-09-13T00:45:01.915Z,100232.40
2022-09-13T00:50:31.239Z,100230.00
2022-09-13T00:55:53.187Z,100224.00
2022-09-13T01:01:01.568Z,100220.00
2022-09-13T01:06:33.397Z,100218.20
2022-09-13T01:12:17.977Z,100219.80
2022-09-13T01:17:21.081Z,100213.40
2022-09-13T01:23:01.766Z,100215.80
2022-09-13T01:28:42.458Z,100220.40
2022-09-13T01:34:01.947Z,100223.20
2022-09-13T01:39:11.270Z,100213.20
2022-09-13T01:44:29.931Z,100216.20
2022-09-13T01:49:55.094Z,100215.20
2022-09-13T01:55:07.114Z,100207.20
2022-09-13T02:00:17.992Z,100202.80
2022-09-13T02:05:40.144Z,100199.00
2022-09-13T02:10:51.479Z,100191.20
2022-09-13T02:16:04.406Z,100186.80
2022-09-13T02:21:28.402Z,100181.60
2022-09-13T02:26:37.498Z,100175.40
2022-09-13T02:32:09.655Z,100168.40
2022-09-13T02:37:13.961Z,100173.40
2022-09-13T02:42:23.811Z,100163.00
2022-09-13T02:48:16.663Z,100163.80
2022-09-13T02:53:48.669Z,100162.20
2022-09-13T02:59:01.092Z,100147.40
2022-09-13T03:04:04.199Z,100149.20
2022-09-13T03:09:07.402Z,100147.60
2022-09-13T03:15:10.017Z,100145.40
2022-09-13T03:20:23.865Z,100148.00
2022-09-13T03:25:39.072Z,100142.20
2022-09-13T03:30:51.259Z,100135.80
2022-09-13T03:36:18.464Z,100134.00
2022-09-13T03:41:31.484Z,100132.80
2022-09-13T03:46:44.913Z,100132.20
2022-09-13T03:51:51.570Z,100124.60
2022-09-13T03:57:21.532Z,100116.80
2022-09-13T04:02:27.100Z,100112.00
2022-09-13T04:07:30.338Z,100112.40
2022-09-13T04:12:33.466Z,100100.40
2022-09-13T04:17:36.843Z,100095.40
2022-09-13T04:22:40.169Z,100092.80
2022-09-13T04:27:43.264Z,100083.40
2022-09-13T04:32:46.265Z,100077.80
2022-09-13T04:37:49.514Z,100066.40
2022-09-13T04:42:52.680Z,100054.80
2022-09-13T04:47:56.854Z,100062.00
2022-09-13T04:53:00.036Z,100061.60
2022-09-13T04:58:04.277Z,100060.20
2022-09-13T05:03:07.371Z,100053.00
2022-09-13T05:08:11.502Z,100044.40
2022-09-13T05:13:14.629Z,100041.40
2022-09-13T05:18:17.815Z,100038.40
2022-09-13T05:23:21.233Z,100042.80
2022-09-13T05:28:25.039Z,100042.20
2022-09-13T05:33:32.159Z,100035.60
2022-09-13T05:38:35.430Z,100031.20
2022-09-13T05:43:38.675Z,100038.60
2022-09-13T05:48:43.057Z,100034.80
2022-09-13T05:53:52.440Z,100030.20
2022-09-13T05:58:55.862Z,100027.20
2022-09-13T06:03:59.846Z,100016.80
2022-09-13T06:09:03.915Z,100013.20
2022-09-13T06:14:07.842Z,100004.20
2022-09-13T06:19:10.951Z,100002.20
2022-09-13T06:24:15.183Z,99991.80
2022-09-13T06:29:18.740Z,99984.40
2022-09-13T06:34:22.008Z,99983.00
2022-09-13T06:39:25.139Z,99983.80
2022-09-13T06:44:28.217Z,99988.20
2022-09-13T06:49:31.842Z,99984.00
2022-09-13T06:54:34.941Z,99990.20
2022-09-13T06:59:38.046Z,99994.20
2022-09-13T07:04:41.303Z,100001.00
2022-09-13T07:09:44.462Z,100001.60
2022-09-13T07:14:47.694Z,100011.80
2022-09-13T07:19:50.882Z,100012.80
2022-09-13T07:24:54.806Z,100012.20
2022-09-13T07:29:58.157Z,100008.00
2022-09-13T07:35:01.227Z,100012.60
2022-09-13T07:40:05.381Z,100009.20
2022-09-13T07:45:09.818Z,100015.80
2022-09-13T07:50:13.015Z,100011.40
2022-09-13T07:55:16.332Z,100008.80
2022-09-13T08:00:19.824Z,100006.20
2022-09-13T08:05:22.930Z,99994.60
2022-09-13T08:10:26.363Z,99987.40
2022-09-13T08:15:29.507Z,99982.80
2022-09-13T08:20:38.587Z,99973.40
2022-09-13T08:25:41.806Z,99966.00
2022-09-13T08:30:45.291Z,99951.60
2022-09-13T08:35:53.311Z,99941.60
2022-09-13T08:41:06.259Z,99943.80
2022-09-13T08:46:17.751Z,99940.80
2022-09-13T08:51:52.328Z,99943.60
2022-09-13T08:57:47.713Z,99930.00
2022-09-13T09:03:20.568Z,99930.40
2022-09-13T09:08:43.637Z,99914.20
2022-09-13T09:13:54.678Z,99905.80
2022-09-13T09:19:15.756Z,99897.60
2022-09-13T09:24:26.309Z,99890.20
2022-09-13T09:29:33.625Z,99884.40
2022-09-13T09:35:13.098Z,99879.20
2022-09-13T09:40:18.220Z,99882.40
2022-09-13T09:45:32.368Z,99878.20
2022-09-13T09:50:44.535Z,99871.60
2022-09-13T09:56:24.103Z,99872.40
2022-09-13T10:01:38.614Z,99863.00
2022-09-13T10:06:43.698Z,99864.40
2022-09-13T10:11:59.631Z,99865.00
2022-09-13T10:17:22.706Z,99864.20
2022-09-13T10:22:34.027Z,99858.80
2022-09-13T10:27:43.149Z,99856.60
2022-09-13T10:32:57.186Z,99840.40
2022-09-13T10:38:01.042Z,99830.20
2022-09-13T10:43:19.670Z,99839.40
2022-09-13T10:48:23.221Z,99826.60
2022-09-13T10:53:42.806Z,99821.00
2022-09-13T10:58:46.036Z,99817.80
2022-09-13T11:04:27.246Z,99813.80
2022-09-13T11:10:08.113Z,99804.20
2022-09-13T11:15:31.830Z,99788.60
2022-09-13T11:21:00.137Z,99777.00
2022-09-13T11:26:39.011Z,99761.60
2022-09-13T11:31:55.848Z,99758.20
2022-09-13T11:37:21.404Z,99740.60
2022-09-13T11:43:05.594Z,99729.40
2022-09-13T11:48:33.923Z,99723.20
2022-09-13T11:54:04.935Z,99719.80
2022-09-13T11:59:23.702Z,99711.80
2022-09-13T12:05:20.628Z,99709.20
2022-09-13T12:10:57.876Z,99712.80
2022-09-13T12:16:13.047Z,99716.20
2022-09-13T12:21:29.626Z,99706.40
2022-09-13T12:26:52.763Z,99703.20
2022-09-13T12:32:02.657Z,99698.60
2022-09-13T12:37:05.985Z,99698.40
2022-09-13T12:42:24.199Z,99699.20
2022-09-13T12:48:10.734Z,99689.00
2022-09-13T12:53:46.002Z,99688.40
2022-09-13T12:59:39.154Z,99668.40
2022-09-13T13:04:42.994Z,99667.00
2022-09-13T13:09:53.438Z,99657.40
2022-09-13T13:14:58.112Z,99643.40
2022-09-13T13:20:39.960Z,99640.60
2022-09-13T13:25:55.333Z,99629.80
2022-09-13T13:30:59.252Z,99623.80
2022-09-13T13:36:22.770Z,99599.20
2022-09-13T13:41:40.875Z,99599.00
2022-09-13T13:46:45.524Z,99595.60
2022-09-13T13:52:11.065Z,99593.20
2022-09-13T13:57:57.378Z,99596.20
2022-09-13T14:03:26.695Z,99597.20
2022-09-13T14:08:45.282Z,99588.60
2022-09-13T14:13:57.894Z,99577.20
2022-09-13T14:19:27.097Z,99566.40
2022-09-13T14:24:30.423Z,99562.80
2022-09-13T14:29:33.635Z,99553.60
2022-09-13T14:34:39.321Z,99534.20
2022-09-13T14:40:00.563Z,99529.40
2022-09-13T14:45:04.787Z,99521.40
2022-09-13T14:50:19.644Z,99514.00
2022-09-13T14:55:40.769Z,99517.00
2022-09-13T15:01:01.119Z,99509.20
2022-09-13T15:06:05.901Z,99509.60
2022-09-13T15:11:36.860Z,99503.60
2022-09-13T15:17:00.869Z,99498.40
2022-09-13T15:22:32.353Z,99505.80
2022-09-13T15:27:42.840Z,99503.40
2022-09-13T15:32:46.039Z,99491.60
2022-09-13T15:38:01.592Z,99490.80
2022-09-13T15:43:04.587Z,99494.80
2022-09-13T15:48:33.548Z,99499.60
2022-09-13T15:53:39.398Z,99487.00
2022-09-13T15:58:42.547Z,99485.60
2022-09-13T16:03:45.621Z,99479.80
2022-09-13T16:08:48.834Z,99473.60
2022-09-13T16:13:52.086Z,99470.00
2022-09-13T16:18:55.267Z,99465.80
2022-09-13T16:23:58.472Z,99467.80
2022-09-13T16:29:01.987Z,99458.20
2022-09-13T16:34:05.810Z,99447.00
2022-09-13T16:39:08.914Z,99439.60
2022-09-13T16:44:12.063Z,99450.40
2022-09-13T16:49:15.436Z,99442.80
2022-09-13T16:54:18.653Z,99439.40
2022-09-13T16:59:21.805Z,99436.00
2022-09-13T17:04:25.682Z,99437.00
2022-09-13T17:09:28.920Z,99432.60
2022-09-13T17:14:33.634Z,99424.00
2022-09-13T17:19:37.142Z,99414.20
2022-09-13T17:24:41.072Z,99413.20
2022-09-13T17:29:44.176Z,99413.20
2022-09-13T17:34:47.588Z,99405.80
2022-09-13T17:39:50.724Z,99403.60
2022-09-13T17:44:54.004Z,99401.60
2022-09-13T17:49:57.118Z,99399.20
2022-09-13T17:55:00.524Z,99396.20
2022-09-13T18:00:12.850Z,99399.80
2022-09-13T18:05:16.170Z,99399.20
2022-09-13T18:10:40.638Z,99400.20
2022-09-13T18:15:42.488Z,99396.00
2022-09-13T18:20:47.293Z,99392.80
2022-09-13T18:26:06.399Z,99391.80
2022-09-13T18:31:17.219Z,99393.60
2022-09-13T18:36:22.720Z,99388.60
2022-09-13T18:41:30.500Z,99388.20
2022-09-13T18:46:35.924Z,99383.80
2022-09-13T18:51:43.795Z,99377.20
2022-09-13T18:56:48.272Z,99379.80
2022-09-13T19:01:51.643Z,99374.60
2022-09-13T19:06:58.433Z,99375.60
2022-09-13T19:12:05.071Z,99376.20
2022-09-13T19:17:08.228Z,99369.60
2022-09-13T19:22:11.619Z,99366.80
2022-09-13T19:27:14.768Z,99366.60
2022-09-13T19:32:17.881Z,99365.80
2022-09-13T19:37:21.105Z,99368.60
2022-09-13T19:42:24.390Z,99358.60
2022-09-13T19:48:27.718Z,99349.80
2022-09-13T19:52:50.981Z,99342.40
2022-09-13T19:57:54.190Z,99339.00
2022-09-13T20:02:57.323Z,99334.40
2022-09-13T20:08:01.329Z,99327.00
2022-09-13T20:13:04.640Z,99327.00
2022-09-13T20:18:13.399Z,99330.00
2022-09-13T20:23:17.841Z,99325.40
2022-09-13T20:28:20.931Z,99324.00
2022-09-13T20:33:24.439Z,99331.80
2022-09-13T20:38:27.543Z,99327.40
2022-09-13T20:43:30.654Z,99326.60
2022-09-13T20:48:35.918Z,99320.20
2022-09-13T20:53:39.929Z,99310.20
2022-09-13T20:58:45.774Z,99307.00
2022-09-13T21:03:52.349Z,99305.40
2022-09-13T21:09:00.258Z,99309.20
2022-09-13T21:14:09.148Z,99305.60
2022-09-13T21:19:12.558Z,99295.20
2022-09-13T21:24:15.872Z,99296.20
2022-09-13T21:29:18.977Z,99305.60
2022-09-13T21:34:22.782Z,99299.80
2022-09-13T21:39:26.212Z,99308.40
2022-09-13T21:44:29.524Z,99317.00
2022-09-13T21:49:33.753Z,99317.40
2022-09-13T21:54:36.877Z,99309.60
2022-09-13T21:59:40.070Z,99309.60
2022-09-13T22:04:43.790Z,99315.20
2022-09-13T22:09:47.203Z,99318.60
2022-09-13T22:14:50.619Z,99321.80
2022-09-13T22:19:53.735Z,99310.40
2022-09-13T22:24:56.938Z,99309.40
2022-09-13T22:30:00.243Z,99307.80
2022-09-13T22:35:03.655Z,99304.00
2022-09-13T22:40:07.740Z,99304.60
2022-09-13T22:45:11.225Z,99293.80
2022-09-13T22:50:14.407Z,99296.00
2022-09-13T22:55:18.436Z,99286.20
2022-09-13T23:00:21.780Z,99293.80
2022-09-13T23:05:25.054Z,99288.40
2022-09-13T23:10:28.189Z,99280.20
2022-09-13T23:15:31.271Z,99282.00
2022-09-13T23:20:34.274Z,99283.40
2022-09-13T23:25:37.479Z,99284.60
2022-09-13T23:30:40.587Z,99267.40
2022-09-13T23:35:45.972Z,99268.40
2022-09-13T23:40:49.061Z,99262.20
2022-09-13T23:45:52.185Z,99258.00
2022-09-13T23:51:04.192Z,99256.40
2022-09-13T23:56:08.324Z,99256.00
